sensor_id;sensor_type;location;lat;lon;timestamp;temperature;humidity
65972;SHT31;52726;48.852;9.152;2023-06-14T00:02:10;13.72;60.28
65972;SHT31;52726;48.852;9.152;2023-06-14T00:04:35;13.73;60.23
65972;SHT31;52726;48.852;9.152;2023-06-14T00:07:01;13.70;59.87
65972;SHT31;52726;48.852;9.152;2023-06-14T00:09:27;13.61;60.44
65972;SHT31;52726;48.852;9.152;2023-06-14T00:11:52;13.59;60.72
65972;SHT31;52726;48.852;9.152;2023-06-14T00:14:17;13.51;61.47
65972;SHT31;52726;48.852;9.152;2023-06-14T00:16:43;13.45;61.58
65972;SHT31;52726;48.852;9.152;2023-06-14T00:19:08;13.48;61.93
65972;SHT31;52726;48.852;9.152;2023-06-14T00:21:36;13.46;61.89
65972;SHT31;52726;48.852;9.152;2023-06-14T00:24:01;13.41;62.06
65972;SHT31;52726;48.852;9.152;2023-06-14T00:26:27;13.34;62.29
65972;SHT31;52726;48.852;9.152;2023-06-14T00:28:53;13.32;61.79
65972;SHT31;52726;48.852;9.152;2023-06-14T00:31:19;13.21;62.15
65972;SHT31;52726;48.852;9.152;2023-06-14T00:33:44;13.10;62.72
65972;SHT31;52726;48.852;9.152;2023-06-14T00:36:10;12.91;62.88
65972;SHT31;52726;48.852;9.152;2023-06-14T00:38:35;12.84;63.47
65972;SHT31;52726;48.852;9.152;2023-06-14T00:41:00;12.84;63.40
65972;SHT31;52726;48.852;9.152;2023-06-14T00:43:26;12.89;63.23
65972;SHT31;52726;48.852;9.152;2023-06-14T00:45:51;12.86;62.74
65972;SHT31;52726;48.852;9.152;2023-06-14T00:48:17;12.77;63.09
65972;SHT31;52726;48.852;9.152;2023-06-14T00:50:44;12.81;63.24
65972;SHT31;52726;48.852;9.152;2023-06-14T00:53:11;12.75;63.45
65972;SHT31;52726;48.852;9.152;2023-06-14T00:55:37;12.73;63.69
65972;SHT31;52726;48.852;9.152;2023-06-14T00:58:02;12.70;64.79
65972;SHT31;52726;48.852;9.152;2023-06-14T01:00:28;12.75;64.30
65972;SHT31;52726;48.852;9.152;2023-06-14T01:02:53;12.79;63.71
65972;SHT31;52726;48.852;9.152;2023-06-14T01:05:19;12.73;64.28
65972;SHT31;52726;48.852;9.152;2023-06-14T01:10:35;12.69;65.09
65972;SHT31;52726;48.852;9.152;2023-06-14T01:13:33;12.64;64.63
65972;SHT31;52726;48.852;9.152;2023-06-14T01:15:59;12.59;65.09
65972;SHT31;52726;48.852;9.152;2023-06-14T01:18:26;12.56;65.71
65972;SHT31;52726;48.852;9.152;2023-06-14T01:20:52;12.56;65.64
65972;SHT31;52726;48.852;9.152;2023-06-14T01:23:21;12.52;65.69
65972;SHT31;52726;48.852;9.152;2023-06-14T01:25:48;12.39;65.94
65972;SHT31;52726;48.852;9.152;2023-06-14T01:28:18;12.33;66.30
65972;SHT31;52726;48.852;9.152;2023-06-14T01:30:47;12.33;65.90
65972;SHT31;52726;48.852;9.152;2023-06-14T01:33:19;12.11;66.31
65972;SHT31;52726;48.852;9.152;2023-06-14T01:35:49;12.12;65.98
65972;SHT31;52726;48.852;9.152;2023-06-14T01:38:14;12.11;66.47
65972;SHT31;52726;48.852;9.152;2023-06-14T01:40:42;12.12;66.27
65972;SHT31;52726;48.852;9.152;2023-06-14T01:43:08;12.12;67.02
65972;SHT31;52726;48.852;9.152;2023-06-14T01:45:35;12.02;67.02
65972;SHT31;52726;48.852;9.152;2023-06-14T01:48:02;12.04;67.00
65972;SHT31;52726;48.852;9.152;2023-06-14T01:50:29;12.02;66.98
65972;SHT31;52726;48.852;9.152;2023-06-14T01:52:55;11.94;67.41
65972;SHT31;52726;48.852;9.152;2023-06-14T01:55:20;11.94;67.61
65972;SHT31;52726;48.852;9.152;2023-06-14T01:57:47;11.97;68.12
65972;SHT31;52726;48.852;9.152;2023-06-14T02:00:13;11.85;67.61
65972;SHT31;52726;48.852;9.152;2023-06-14T02:02:40;11.85;68.09
65972;SHT31;52726;48.852;9.152;2023-06-14T02:05:05;11.77;68.83
65972;SHT31;52726;48.852;9.152;2023-06-14T02:07:31;11.71;69.51
65972;SHT31;52726;48.852;9.152;2023-06-14T02:09:56;11.78;68.34
65972;SHT31;52726;48.852;9.152;2023-06-14T02:12:22;11.88;68.56
65972;SHT31;52726;48.852;9.152;2023-06-14T02:14:47;11.88;68.35
65972;SHT31;52726;48.852;9.152;2023-06-14T02:17:13;11.91;68.40
65972;SHT31;52726;48.852;9.152;2023-06-14T02:19:39;11.83;68.44
65972;SHT31;52726;48.852;9.152;2023-06-14T02:22:04;11.78;68.77
65972;SHT31;52726;48.852;9.152;2023-06-14T02:24:30;11.70;69.14
65972;SHT31;52726;48.852;9.152;2023-06-14T02:26:55;11.66;69.82
65972;SHT31;52726;48.852;9.152;2023-06-14T02:29:20;11.55;70.18
65972;SHT31;52726;48.852;9.152;2023-06-14T02:31:46;11.57;69.93
65972;SHT31;52726;48.852;9.152;2023-06-14T02:34:13;11.60;69.16
65972;SHT31;52726;48.852;9.152;2023-06-14T02:36:39;11.57;69.76
65972;SHT31;52726;48.852;9.152;2023-06-14T02:39:07;11.55;69.47
65972;SHT31;52726;48.852;9.152;2023-06-14T02:41:32;11.49;69.51
65972;SHT31;52726;48.852;9.152;2023-06-14T02:43:57;11.44;70.11
65972;SHT31;52726;48.852;9.152;2023-06-14T02:46:23;11.42;70.31
65972;SHT31;52726;48.852;9.152;2023-06-14T02:48:49;11.35;70.27
65972;SHT31;52726;48.852;9.152;2023-06-14T02:51:14;11.28;70.78
65972;SHT31;52726;48.852;9.152;2023-06-14T02:53:39;11.29;70.53
65972;SHT31;52726;48.852;9.152;2023-06-14T02:56:05;11.28;70.96
65972;SHT31;52726;48.852;9.152;2023-06-14T02:58:31;11.29;70.53
65972;SHT31;52726;48.852;9.152;2023-06-14T03:00:56;11.22;70.95
65972;SHT31;52726;48.852;9.152;2023-06-14T03:03:22;11.16;70.82
65972;SHT31;52726;48.852;9.152;2023-06-14T03:05:50;11.02;71.11
65972;SHT31;52726;48.852;9.152;2023-06-14T03:08:16;11.05;71.37
65972;SHT31;52726;48.852;9.152;2023-06-14T03:10:45;11.07;71.04
65972;SHT31;52726;48.852;9.152;2023-06-14T03:13:11;11.09;70.97
65972;SHT31;52726;48.852;9.152;2023-06-14T03:15:37;11.08;70.74
65972;SHT31;52726;48.852;9.152;2023-06-14T03:18:03;11.05;71.31
65972;SHT31;52726;48.852;9.152;2023-06-14T03:20:29;11.04;71.35
65972;SHT31;52726;48.852;9.152;2023-06-14T03:23:01;11.01;71.24
65972;SHT31;52726;48.852;9.152;2023-06-14T03:25:26;10.98;71.83
65972;SHT31;52726;48.852;9.152;2023-06-14T03:27:57;10.95;71.43
65972;SHT31;52726;48.852;9.152;2023-06-14T03:30:22;10.91;72.76
65972;SHT31;52726;48.852;9.152;2023-06-14T03:32:48;10.90;71.57
65972;SHT31;52726;48.852;9.152;2023-06-14T03:35:13;10.94;72.79
65972;SHT31;52726;48.852;9.152;2023-06-14T03:37:47;10.92;72.44
65972;SHT31;52726;48.852;9.152;2023-06-14T03:40:17;10.97;71.95
65972;SHT31;52726;48.852;9.152;2023-06-14T03:42:43;10.95;72.83
65972;SHT31;52726;48.852;9.152;2023-06-14T03:45:08;10.95;71.97
65972;SHT31;52726;48.852;9.152;2023-06-14T03:47:34;10.97;72.38
65972;SHT31;52726;48.852;9.152;2023-06-14T03:50:00;10.99;72.51
65972;SHT31;52726;48.852;9.152;2023-06-14T03:52:26;10.92;72.51
65972;SHT31;52726;48.852;9.152;2023-06-14T03:54:52;10.88;72.91
65972;SHT31;52726;48.852;9.152;2023-06-14T03:57:18;10.90;73.54
65972;SHT31;52726;48.852;9.152;2023-06-14T03:59:43;10.84;73.57
65972;SHT31;52726;48.852;9.152;2023-06-14T04:02:09;10.82;73.94
65972;SHT31;52726;48.852;9.152;2023-06-14T04:04:35;10.84;73.43
65972;SHT31;52726;48.852;9.152;2023-06-14T04:07:00;10.88;73.88
65972;SHT31;52726;48.852;9.152;2023-06-14T04:09:31;10.98;73.66
65972;SHT31;52726;48.852;9.152;2023-06-14T04:11:56;11.02;73.46
65972;SHT31;52726;48.852;9.152;2023-06-14T04:14:22;11.07;73.30
65972;SHT31;52726;48.852;9.152;2023-06-14T04:16:48;11.11;73.95
65972;SHT31;52726;48.852;9.152;2023-06-14T04:19:13;11.16;74.22
65972;SHT31;52726;48.852;9.152;2023-06-14T04:21:39;11.15;74.57
65972;SHT31;52726;48.852;9.152;2023-06-14T04:24:04;11.20;74.87
65972;SHT31;52726;48.852;9.152;2023-06-14T04:26:30;11.23;74.56
65972;SHT31;52726;48.852;9.152;2023-06-14T04:28:59;11.40;73.71
65972;SHT31;52726;48.852;9.152;2023-06-14T04:31:28;11.50;73.31
65972;SHT31;52726;48.852;9.152;2023-06-14T04:33:55;11.71;72.52
65972;SHT31;52726;48.852;9.152;2023-06-14T04:36:21;11.93;72.10
65972;SHT31;52726;48.852;9.152;2023-06-14T04:38:46;12.06;71.31
65972;SHT31;52726;48.852;9.152;2023-06-14T04:41:12;12.28;70.68
65972;SHT31;52726;48.852;9.152;2023-06-14T04:43:37;12.45;70.35
65972;SHT31;52726;48.852;9.152;2023-06-14T04:46:06;12.52;70.37
65972;SHT31;52726;48.852;9.152;2023-06-14T04:48:37;12.57;70.84
65972;SHT31;52726;48.852;9.152;2023-06-14T04:51:02;12.70;69.57
65972;SHT31;52726;48.852;9.152;2023-06-14T04:53:29;12.79;69.95
65972;SHT31;52726;48.852;9.152;2023-06-14T04:55:54;12.87;69.27
65972;SHT31;52726;48.852;9.152;2023-06-14T04:58:20;12.90;69.86
65972;SHT31;52726;48.852;9.152;2023-06-14T05:00:45;12.93;70.08
65972;SHT31;52726;48.852;9.152;2023-06-14T05:03:10;12.97;69.85
65972;SHT31;52726;48.852;9.152;2023-06-14T05:05:39;13.00;70.55
65972;SHT31;52726;48.852;9.152;2023-06-14T05:08:05;13.06;71.17
65972;SHT31;52726;48.852;9.152;2023-06-14T05:10:31;13.11;71.43
65972;SHT31;52726;48.852;9.152;2023-06-14T05:12:56;13.18;71.20
65972;SHT31;52726;48.852;9.152;2023-06-14T05:15:21;13.21;70.15
65972;SHT31;52726;48.852;9.152;2023-06-14T05:17:50;13.29;69.60
65972;SHT31;52726;48.852;9.152;2023-06-14T05:20:19;13.35;68.12
65972;SHT31;52726;48.852;9.152;2023-06-14T05:22:45;13.54;68.59
65972;SHT31;52726;48.852;9.152;2023-06-14T05:25:10;13.55;68.16
65972;SHT31;52726;48.852;9.152;2023-06-14T05:27:35;13.59;69.76
65972;SHT31;52726;48.852;9.152;2023-06-14T05:30:02;13.65;68.88
65972;SHT31;52726;48.852;9.152;2023-06-14T05:32:29;13.72;69.02
65972;SHT31;52726;48.852;9.152;2023-06-14T05:34:54;13.79;70.01
65972;SHT31;52726;48.852;9.152;2023-06-14T05:37:19;13.89;68.79
65972;SHT31;52726;48.852;9.152;2023-06-14T05:39:45;13.94;67.47
65972;SHT31;52726;48.852;9.152;2023-06-14T05:42:10;14.07;66.82
65972;SHT31;52726;48.852;9.152;2023-06-14T05:44:36;14.28;66.87
65972;SHT31;52726;48.852;9.152;2023-06-14T05:47:01;14.55;66.87
65972;SHT31;52726;48.852;9.152;2023-06-14T05:49:27;14.69;65.40
65972;SHT31;52726;48.852;9.152;2023-06-14T05:51:52;14.85;63.74
65972;SHT31;52726;48.852;9.152;2023-06-14T05:54:17;15.00;63.23
65972;SHT31;52726;48.852;9.152;2023-06-14T05:56:42;15.14;63.10
65972;SHT31;52726;48.852;9.152;2023-06-14T05:59:08;15.36;62.02
65972;SHT31;52726;48.852;9.152;2023-06-14T06:01:33;15.44;60.85
65972;SHT31;52726;48.852;9.152;2023-06-14T06:04:02;15.55;61.60
65972;SHT31;52726;48.852;9.152;2023-06-14T06:06:27;15.65;61.76
65972;SHT31;52726;48.852;9.152;2023-06-14T06:08:52;15.72;60.76
65972;SHT31;52726;48.852;9.152;2023-06-14T06:11:17;15.92;61.57
65972;SHT31;52726;48.852;9.152;2023-06-14T06:13:43;16.09;60.88
65972;SHT31;52726;48.852;9.152;2023-06-14T06:16:08;16.30;60.90
65972;SHT31;52726;48.852;9.152;2023-06-14T06:18:34;16.46;60.26
65972;SHT31;52726;48.852;9.152;2023-06-14T06:20:59;16.68;59.40
65972;SHT31;52726;48.852;9.152;2023-06-14T06:23:25;16.87;58.27
65972;SHT31;52726;48.852;9.152;2023-06-14T06:25:51;17.15;58.70
65972;SHT31;52726;48.852;9.152;2023-06-14T06:28:17;17.39;58.29
65972;SHT31;52726;48.852;9.152;2023-06-14T06:30:42;17.67;55.48
65972;SHT31;52726;48.852;9.152;2023-06-14T06:33:08;18.38;55.00
65972;SHT31;52726;48.852;9.152;2023-06-14T06:35:33;19.07;50.59
65972;SHT31;52726;48.852;9.152;2023-06-14T06:37:59;19.91;48.15
65972;SHT31;52726;48.852;9.152;2023-06-14T06:40:25;20.75;45.26
65972;SHT31;52726;48.852;9.152;2023-06-14T06:42:50;20.82;45.80
65972;SHT31;52726;48.852;9.152;2023-06-14T06:45:16;21.03;45.36
65972;SHT31;52726;48.852;9.152;2023-06-14T06:47:41;21.24;44.55
65972;SHT31;52726;48.852;9.152;2023-06-14T06:50:07;21.40;45.06
65972;SHT31;52726;48.852;9.152;2023-06-14T06:52:33;21.95;44.41
65972;SHT31;52726;48.852;9.152;2023-06-14T06:54:58;22.05;45.15
65972;SHT31;52726;48.852;9.152;2023-06-14T06:57:23;22.13;43.94
65972;SHT31;52726;48.852;9.152;2023-06-14T06:59:49;22.14;44.29
65972;SHT31;52726;48.852;9.152;2023-06-14T07:02:15;22.26;44.00
65972;SHT31;52726;48.852;9.152;2023-06-14T07:04:41;22.53;43.31
65972;SHT31;52726;48.852;9.152;2023-06-14T07:07:06;22.67;43.22
65972;SHT31;52726;48.852;9.152;2023-06-14T07:09:32;23.03;41.38
65972;SHT31;52726;48.852;9.152;2023-06-14T07:11:57;23.53;40.87
65972;SHT31;52726;48.852;9.152;2023-06-14T07:14:22;23.73;38.85
65972;SHT31;52726;48.852;9.152;2023-06-14T07:16:49;23.33;39.20
65972;SHT31;52726;48.852;9.152;2023-06-14T07:19:14;23.38;40.90
65972;SHT31;52726;48.852;9.152;2023-06-14T07:21:40;23.23;39.84
65972;SHT31;52726;48.852;9.152;2023-06-14T07:24:06;23.34;40.95
65972;SHT31;52726;48.852;9.152;2023-06-14T07:26:32;23.82;39.74
65972;SHT31;52726;48.852;9.152;2023-06-14T07:28:58;23.94;40.29
65972;SHT31;52726;48.852;9.152;2023-06-14T07:31:23;23.53;39.63
65972;SHT31;52726;48.852;9.152;2023-06-14T07:33:48;23.88;39.40
65972;SHT31;52726;48.852;9.152;2023-06-14T07:36:14;24.11;38.27
65972;SHT31;52726;48.852;9.152;2023-06-14T07:38:39;24.18;39.32
65972;SHT31;52726;48.852;9.152;2023-06-14T07:41:06;23.26;41.46
65972;SHT31;52726;48.852;9.152;2023-06-14T07:43:31;23.27;42.06
65972;SHT31;52726;48.852;9.152;2023-06-14T07:45:56;23.20;40.94
65972;SHT31;52726;48.852;9.152;2023-06-14T07:48:22;23.94;40.01
65972;SHT31;52726;48.852;9.152;2023-06-14T07:50:47;24.25;38.81
65972;SHT31;52726;48.852;9.152;2023-06-14T07:53:13;24.16;39.75
65972;SHT31;52726;48.852;9.152;2023-06-14T07:55:38;23.89;40.31
65972;SHT31;52726;48.852;9.152;2023-06-14T07:58:05;23.68;41.09
65972;SHT31;52726;48.852;9.152;2023-06-14T08:00:31;24.18;39.98
65972;SHT31;52726;48.852;9.152;2023-06-14T08:02:57;24.60;38.50
65972;SHT31;52726;48.852;9.152;2023-06-14T08:05:24;24.76;38.40
65972;SHT31;52726;48.852;9.152;2023-06-14T08:07:51;25.31;38.01
65972;SHT31;52726;48.852;9.152;2023-06-14T08:10:16;24.28;40.69
65972;SHT31;52726;48.852;9.152;2023-06-14T08:12:41;24.11;40.67
65972;SHT31;52726;48.852;9.152;2023-06-14T08:15:07;24.56;39.47
65972;SHT31;52726;48.852;9.152;2023-06-14T08:17:33;25.14;38.78
65972;SHT31;52726;48.852;9.152;2023-06-14T08:19:58;24.88;38.30
65972;SHT31;52726;48.852;9.152;2023-06-14T08:22:24;24.55;40.20
65972;SHT31;52726;48.852;9.152;2023-06-14T08:24:50;24.52;40.19
65972;SHT31;52726;48.852;9.152;2023-06-14T08:27:15;24.91;40.58
65972;SHT31;52726;48.852;9.152;2023-06-14T08:29:41;24.66;41.78
65972;SHT31;52726;48.852;9.152;2023-06-14T08:32:07;24.66;41.15
65972;SHT31;52726;48.852;9.152;2023-06-14T08:34:32;24.24;43.18
65972;SHT31;52726;48.852;9.152;2023-06-14T08:36:57;24.48;43.01
65972;SHT31;52726;48.852;9.152;2023-06-14T08:39:23;24.57;40.09
65972;SHT31;52726;48.852;9.152;2023-06-14T08:41:48;24.52;41.87
65972;SHT31;52726;48.852;9.152;2023-06-14T08:44:17;24.74;43.20
65972;SHT31;52726;48.852;9.152;2023-06-14T08:46:43;24.95;41.30
65972;SHT31;52726;48.852;9.152;2023-06-14T08:49:11;25.35;40.67
65972;SHT31;52726;48.852;9.152;2023-06-14T08:51:38;25.65;39.01
65972;SHT31;52726;48.852;9.152;2023-06-14T08:54:06;25.35;38.91
65972;SHT31;52726;48.852;9.152;2023-06-14T08:56:31;24.80;39.19
65972;SHT31;52726;48.852;9.152;2023-06-14T08:58:59;25.48;38.19
65972;SHT31;52726;48.852;9.152;2023-06-14T09:01:28;25.35;39.26
65972;SHT31;52726;48.852;9.152;2023-06-14T09:03:53;24.66;42.09
65972;SHT31;52726;48.852;9.152;2023-06-14T09:06:23;25.14;41.67
65972;SHT31;52726;48.852;9.152;2023-06-14T09:08:50;25.45;41.14
65972;SHT31;52726;48.852;9.152;2023-06-14T09:11:18;25.48;39.81
65972;SHT31;52726;48.852;9.152;2023-06-14T09:13:46;25.04;39.89
65972;SHT31;52726;48.852;9.152;2023-06-14T09:16:12;25.31;41.31
65972;SHT31;52726;48.852;9.152;2023-06-14T09:18:39;25.31;39.45
65972;SHT31;52726;48.852;9.152;2023-06-14T09:21:07;25.25;42.12
65972;SHT31;52726;48.852;9.152;2023-06-14T09:23:40;25.18;39.50
65972;SHT31;52726;48.852;9.152;2023-06-14T09:26:10;25.53;41.00
65972;SHT31;52726;48.852;9.152;2023-06-14T09:28:36;25.67;38.58
65972;SHT31;52726;48.852;9.152;2023-06-14T09:31:01;25.92;40.86
65972;SHT31;52726;48.852;9.152;2023-06-14T09:33:27;25.84;38.88
65972;SHT31;52726;48.852;9.152;2023-06-14T09:35:55;25.41;37.30
65972;SHT31;52726;48.852;9.152;2023-06-14T09:38:20;25.35;38.85
65972;SHT31;52726;48.852;9.152;2023-06-14T09:40:46;25.24;39.47
65972;SHT31;52726;48.852;9.152;2023-06-14T09:43:11;25.87;38.18
65972;SHT31;52726;48.852;9.152;2023-06-14T09:45:38;25.79;40.11
65972;SHT31;52726;48.852;9.152;2023-06-14T09:48:06;25.24;41.55
65972;SHT31;52726;48.852;9.152;2023-06-14T09:50:32;25.84;40.86
65972;SHT31;52726;48.852;9.152;2023-06-14T09:53:03;25.90;39.08
65972;SHT31;52726;48.852;9.152;2023-06-14T09:55:30;26.00;36.87
65972;SHT31;52726;48.852;9.152;2023-06-14T09:58:00;26.93;37.62
65972;SHT31;52726;48.852;9.152;2023-06-14T10:00:28;25.93;38.82
65972;SHT31;52726;48.852;9.152;2023-06-14T10:03:00;26.45;37.33
65972;SHT31;52726;48.852;9.152;2023-06-14T10:05:29;26.03;35.42
65972;SHT31;52726;48.852;9.152;2023-06-14T10:08:05;27.07;34.84
65972;SHT31;52726;48.852;9.152;2023-06-14T10:10:33;26.21;36.21
65972;SHT31;52726;48.852;9.152;2023-06-14T10:12:58;25.76;37.17
65972;SHT31;52726;48.852;9.152;2023-06-14T10:15:38;26.12;35.70
65972;SHT31;52726;48.852;9.152;2023-06-14T10:21:26;25.53;37.12
65972;SHT31;52726;48.852;9.152;2023-06-14T10:23:55;26.14;37.80
65972;SHT31;52726;48.852;9.152;2023-06-14T10:26:22;26.48;35.72
65972;SHT31;52726;48.852;9.152;2023-06-14T10:29:07;26.01;35.48
65972;SHT31;52726;48.852;9.152;2023-06-14T10:31:46;26.17;34.36
65972;SHT31;52726;48.852;9.152;2023-06-14T10:34:21;26.45;34.48
65972;SHT31;52726;48.852;9.152;2023-06-14T10:37:00;26.80;32.42
65972;SHT31;52726;48.852;9.152;2023-06-14T10:39:27;27.22;34.12
65972;SHT31;52726;48.852;9.152;2023-06-14T10:41:54;27.41;32.54
65972;SHT31;52726;48.852;9.152;2023-06-14T10:46:54;27.18;31.55
65972;SHT31;52726;48.852;9.152;2023-06-14T10:49:37;26.52;31.44
65972;SHT31;52726;48.852;9.152;2023-06-14T10:52:17;25.93;34.90
65972;SHT31;52726;48.852;9.152;2023-06-14T10:55:07;26.79;31.25
65972;SHT31;52726;48.852;9.152;2023-06-14T11:00:08;26.79;31.96
65972;SHT31;52726;48.852;9.152;2023-06-14T11:05:51;25.11;34.21
65972;SHT31;52726;48.852;9.152;2023-06-14T11:11:18;24.28;36.41
65972;SHT31;52726;48.852;9.152;2023-06-14T11:13:46;23.94;36.22
65972;SHT31;52726;48.852;9.152;2023-06-14T11:16:17;23.67;35.27
65972;SHT31;52726;48.852;9.152;2023-06-14T11:18:44;24.73;34.00
65972;SHT31;52726;48.852;9.152;2023-06-14T11:21:10;25.31;33.81
65972;SHT31;52726;48.852;9.152;2023-06-14T11:23:36;25.66;33.68
65972;SHT31;52726;48.852;9.152;2023-06-14T11:26:01;25.69;33.78
65972;SHT31;52726;48.852;9.152;2023-06-14T11:28:40;25.55;34.82
65972;SHT31;52726;48.852;9.152;2023-06-14T11:31:07;25.62;34.79
65972;SHT31;52726;48.852;9.152;2023-06-14T11:33:32;25.79;33.85
65972;SHT31;52726;48.852;9.152;2023-06-14T11:35:58;25.49;34.41
65972;SHT31;52726;48.852;9.152;2023-06-14T11:38:25;25.10;36.06
65972;SHT31;52726;48.852;9.152;2023-06-14T11:40:51;25.70;35.91
65972;SHT31;52726;48.852;9.152;2023-06-14T11:43:16;25.35;35.37
65972;SHT31;52726;48.852;9.152;2023-06-14T11:45:42;25.79;34.44
65972;SHT31;52726;48.852;9.152;2023-06-14T11:48:07;26.14;34.76
65972;SHT31;52726;48.852;9.152;2023-06-14T11:50:37;25.93;34.16
65972;SHT31;52726;48.852;9.152;2023-06-14T11:53:03;25.66;32.92
65972;SHT31;52726;48.852;9.152;2023-06-14T11:55:41;25.67;33.58
65972;SHT31;52726;48.852;9.152;2023-06-14T11:58:10;25.94;33.92
65972;SHT31;52726;48.852;9.152;2023-06-14T12:00:36;26.25;34.29
65972;SHT31;52726;48.852;9.152;2023-06-14T12:03:02;26.00;34.53
65972;SHT31;52726;48.852;9.152;2023-06-14T12:05:28;26.12;34.64
65972;SHT31;52726;48.852;9.152;2023-06-14T12:08:01;26.14;34.26
65972;SHT31;52726;48.852;9.152;2023-06-14T12:10:28;26.14;34.18
65972;SHT31;52726;48.852;9.152;2023-06-14T12:12:57;25.80;34.45
65972;SHT31;52726;48.852;9.152;2023-06-14T12:15:23;25.50;32.68
65972;SHT31;52726;48.852;9.152;2023-06-14T12:17:49;25.66;32.74
65972;SHT31;52726;48.852;9.152;2023-06-14T12:20:20;26.28;33.73
65972;SHT31;52726;48.852;9.152;2023-06-14T12:22:57;26.76;31.86
65972;SHT31;52726;48.852;9.152;2023-06-14T12:25:35;26.58;33.44
65972;SHT31;52726;48.852;9.152;2023-06-14T12:28:05;26.04;32.97
65972;SHT31;52726;48.852;9.152;2023-06-14T12:30:31;26.24;34.08
65972;SHT31;52726;48.852;9.152;2023-06-14T12:32:56;26.59;33.29
65972;SHT31;52726;48.852;9.152;2023-06-14T12:35:22;26.62;34.67
65972;SHT31;52726;48.852;9.152;2023-06-14T12:37:47;26.34;32.85
65972;SHT31;52726;48.852;9.152;2023-06-14T12:40:13;25.83;34.22
65972;SHT31;52726;48.852;9.152;2023-06-14T12:42:40;25.92;35.93
65972;SHT31;52726;48.852;9.152;2023-06-14T12:45:05;25.65;32.64
65972;SHT31;52726;48.852;9.152;2023-06-14T12:47:34;25.28;33.83
65972;SHT31;52726;48.852;9.152;2023-06-14T12:49:59;25.22;35.60
65972;SHT31;52726;48.852;9.152;2023-06-14T12:52:27;25.45;35.07
65972;SHT31;52726;48.852;9.152;2023-06-14T12:54:53;25.70;34.31
65972;SHT31;52726;48.852;9.152;2023-06-14T12:57:18;25.59;35.07
65972;SHT31;52726;48.852;9.152;2023-06-14T12:59:44;25.73;32.74
65972;SHT31;52726;48.852;9.152;2023-06-14T13:02:14;25.34;36.90
65972;SHT31;52726;48.852;9.152;2023-06-14T13:04:40;25.46;34.64
65972;SHT31;52726;48.852;9.152;2023-06-14T13:07:05;25.43;35.59
65972;SHT31;52726;48.852;9.152;2023-06-14T13:09:31;25.86;34.94
65972;SHT31;52726;48.852;9.152;2023-06-14T13:11:56;26.12;31.66
65972;SHT31;52726;48.852;9.152;2023-06-14T13:14:21;25.66;32.92
65972;SHT31;52726;48.852;9.152;2023-06-14T13:16:47;25.77;33.45
65972;SHT31;52726;48.852;9.152;2023-06-14T13:19:12;25.53;34.35
65972;SHT31;52726;48.852;9.152;2023-06-14T13:21:37;25.65;34.71
65972;SHT31;52726;48.852;9.152;2023-06-14T13:24:03;25.87;34.07
65972;SHT31;52726;48.852;9.152;2023-06-14T13:26:28;26.34;34.13
65972;SHT31;52726;48.852;9.152;2023-06-14T13:28:54;25.72;33.53
65972;SHT31;52726;48.852;9.152;2023-06-14T13:31:19;25.96;33.59
65972;SHT31;52726;48.852;9.152;2023-06-14T13:33:44;26.76;32.82
65972;SHT31;52726;48.852;9.152;2023-06-14T13:36:10;26.85;33.53
65972;SHT31;52726;48.852;9.152;2023-06-14T13:38:35;26.71;32.63
65972;SHT31;52726;48.852;9.152;2023-06-14T13:41:00;26.25;33.57
65972;SHT31;52726;48.852;9.152;2023-06-14T13:43:26;25.92;35.16
65972;SHT31;52726;48.852;9.152;2023-06-14T13:45:51;25.76;35.59
65972;SHT31;52726;48.852;9.152;2023-06-14T13:48:16;26.37;39.25
65972;SHT31;52726;48.852;9.152;2023-06-14T13:50:42;26.44;36.09
65972;SHT31;52726;48.852;9.152;2023-06-14T13:53:07;25.45;35.52
65972;SHT31;52726;48.852;9.152;2023-06-14T13:55:33;25.42;35.94
65972;SHT31;52726;48.852;9.152;2023-06-14T13:57:58;25.24;35.50
65972;SHT31;52726;48.852;9.152;2023-06-14T14:00:23;25.62;35.55
65972;SHT31;52726;48.852;9.152;2023-06-14T14:02:49;25.67;35.76
65972;SHT31;52726;48.852;9.152;2023-06-14T14:05:15;25.63;35.05
65972;SHT31;52726;48.852;9.152;2023-06-14T14:07:41;25.66;35.47
65972;SHT31;52726;48.852;9.152;2023-06-14T14:10:07;26.21;35.69
65972;SHT31;52726;48.852;9.152;2023-06-14T14:12:33;26.37;33.89
65972;SHT31;52726;48.852;9.152;2023-06-14T14:14:59;26.69;32.57
65972;SHT31;52726;48.852;9.152;2023-06-14T14:17:24;25.73;34.38
65972;SHT31;52726;48.852;9.152;2023-06-14T14:19:50;25.89;37.45
65972;SHT31;52726;48.852;9.152;2023-06-14T14:22:15;26.28;35.51
65972;SHT31;52726;48.852;9.152;2023-06-14T14:24:41;26.65;34.56
65972;SHT31;52726;48.852;9.152;2023-06-14T14:27:06;26.59;35.74
65972;SHT31;52726;48.852;9.152;2023-06-14T14:29:33;26.56;32.66
65972;SHT31;52726;48.852;9.152;2023-06-14T14:31:58;27.04;36.30
65972;SHT31;52726;48.852;9.152;2023-06-14T14:34:24;26.95;34.62
65972;SHT31;52726;48.852;9.152;2023-06-14T14:36:50;27.10;35.84
65972;SHT31;52726;48.852;9.152;2023-06-14T14:39:15;27.06;34.81
65972;SHT31;52726;48.852;9.152;2023-06-14T14:41:41;26.90;33.99
65972;SHT31;52726;48.852;9.152;2023-06-14T14:44:06;27.13;34.86
65972;SHT31;52726;48.852;9.152;2023-06-14T14:46:32;27.26;36.27
65972;SHT31;52726;48.852;9.152;2023-06-14T14:48:58;27.14;32.54
65972;SHT31;52726;48.852;9.152;2023-06-14T14:51:27;27.07;34.28
65972;SHT31;52726;48.852;9.152;2023-06-14T14:53:52;27.22;34.33
65972;SHT31;52726;48.852;9.152;2023-06-14T14:56:17;27.06;32.87
65972;SHT31;52726;48.852;9.152;2023-06-14T14:58:43;26.85;34.21
65972;SHT31;52726;48.852;9.152;2023-06-14T15:01:09;26.75;33.21
65972;SHT31;52726;48.852;9.152;2023-06-14T15:03:34;26.79;33.52
65972;SHT31;52726;48.852;9.152;2023-06-14T15:06:00;26.92;34.95
65972;SHT31;52726;48.852;9.152;2023-06-14T15:08:28;27.14;34.18
65972;SHT31;52726;48.852;9.152;2023-06-14T15:10:53;27.37;33.79
65972;SHT31;52726;48.852;9.152;2023-06-14T15:13:24;27.43;35.56
65972;SHT31;52726;48.852;9.152;2023-06-14T15:15:50;27.23;34.97
65972;SHT31;52726;48.852;9.152;2023-06-14T15:18:15;26.99;33.86
65972;SHT31;52726;48.852;9.152;2023-06-14T15:20:42;26.82;34.14
65972;SHT31;52726;48.852;9.152;2023-06-14T15:23:07;26.47;33.31
65972;SHT31;52726;48.852;9.152;2023-06-14T15:25:33;26.27;35.87
65972;SHT31;52726;48.852;9.152;2023-06-14T15:27:58;26.12;34.23
65972;SHT31;52726;48.852;9.152;2023-06-14T15:30:23;25.59;34.65
65972;SHT31;52726;48.852;9.152;2023-06-14T15:32:49;25.27;35.11
65972;SHT31;52726;48.852;9.152;2023-06-14T15:35:17;24.97;36.32
65972;SHT31;52726;48.852;9.152;2023-06-14T15:37:47;24.87;36.30
65972;SHT31;52726;48.852;9.152;2023-06-14T15:40:12;24.72;36.67
65972;SHT31;52726;48.852;9.152;2023-06-14T15:42:38;24.98;38.35
65972;SHT31;52726;48.852;9.152;2023-06-14T15:45:03;24.92;36.01